createdAt,value
2018-07-21T00:01:57.893Z,53.70
2018-07-21T00:03:59.872Z,53.70
2018-07-21T00:06:01.834Z,53.70
2018-07-21T00:08:03.793Z,53.70
2018-07-21T00:12:08.017Z,53.70
2018-07-21T00:14:10.036Z,53.70
2018-07-21T00:16:11.982Z,53.70
2018-07-21T00:18:13.966Z,53.70
2018-07-21T00:20:15.938Z,53.70
2018-07-21T00:22:17.918Z,53.70
2018-07-21T00:24:19.890Z,53.70
2018-07-21T00:26:21.892Z,53.70
2018-07-21T00:28:23.858Z,53.70
2018-07-21T00:30:25.836Z,53.60
2018-07-21T00:32:27.804Z,53.60
2018-07-21T00:34:29.778Z,53.60
2018-07-21T00:36:31.756Z,53.60
2018-07-21T00:38:33.734Z,53.60
2018-07-21T00:40:35.698Z,53.60
2018-07-21T00:42:37.688Z,53.60
2018-07-21T00:44:39.648Z,53.60
2018-07-21T00:48:43.908Z,53.70
2018-07-21T00:50:45.880Z,53.70
2018-07-21T00:52:47.867Z,53.70
2018-07-21T00:54:49.831Z,53.70
2018-07-21T00:56:51.807Z,53.70
2018-07-21T00:58:53.792Z,53.70
2018-07-21T01:00:55.764Z,53.70
2018-07-21T01:02:57.755Z,53.70
2018-07-21T01:04:59.720Z,53.70
2018-07-21T01:07:01.688Z,53.70
2018-07-21T01:09:03.678Z,53.70
2018-07-21T01:11:05.696Z,53.70
2018-07-21T01:13:07.722Z,53.70
2018-07-21T01:15:09.687Z,53.70
2018-07-21T01:17:11.666Z,53.70
2018-07-21T01:19:13.673Z,53.70
2018-07-21T01:21:15.649Z,53.70
2018-07-21T01:23:17.629Z,53.70
2018-07-21T01:25:19.592Z,53.70
2018-07-21T01:27:21.572Z,53.80
2018-07-21T01:29:23.540Z,53.80
2018-07-21T01:31:25.524Z,53.80
2018-07-21T01:33:27.497Z,53.80
2018-07-21T01:35:29.466Z,53.80
2018-07-21T01:37:31.429Z,53.80
2018-07-21T01:39:33.436Z,53.80
2018-07-21T01:41:35.416Z,53.90
2018-07-21T01:43:37.380Z,53.80
2018-07-21T01:45:39.385Z,53.80
2018-07-21T01:47:41.347Z,53.80
2018-07-21T01:49:43.321Z,53.80
2018-07-21T01:51:45.328Z,53.80
2018-07-21T01:53:47.301Z,53.80
2018-07-21T01:55:49.307Z,53.80
2018-07-21T01:57:51.272Z,53.80
2018-07-21T01:59:53.245Z,53.80
2018-07-21T02:01:55.252Z,53.70
2018-07-21T02:03:57.214Z,53.60
2018-07-21T02:05:59.181Z,53.60
2018-07-21T02:08:01.157Z,53.60
2018-07-21T02:10:03.130Z,53.60
2018-07-21T02:12:05.109Z,53.60
2018-07-21T02:14:07.093Z,53.60
2018-07-21T02:16:09.072Z,53.60
2018-07-21T02:18:11.054Z,53.50
2018-07-21T02:20:13.832Z,53.50
2018-07-21T02:22:15.807Z,53.50
2018-07-21T02:24:17.797Z,53.50
2018-07-21T02:26:19.776Z,53.50
2018-07-21T02:28:21.950Z,53.50
2018-07-21T02:30:24.916Z,53.50
2018-07-21T02:32:27.325Z,53.50
2018-07-21T02:34:29.292Z,53.50
2018-07-21T02:36:31.327Z,53.50
2018-07-21T02:38:33.303Z,53.50
2018-07-21T02:40:35.285Z,53.50
2018-07-21T02:42:37.247Z,53.50
2018-07-21T02:44:39.208Z,53.50
2018-07-21T02:46:41.175Z,53.50
2018-07-21T02:48:43.179Z,53.50
2018-07-21T02:50:45.144Z,53.40
2018-07-21T02:52:47.097Z,53.40
2018-07-21T02:54:49.094Z,53.40
2018-07-21T02:56:51.058Z,53.30
2018-07-21T02:58:53.034Z,53.30
2018-07-21T03:00:55.010Z,53.40
2018-07-21T03:02:56.965Z,53.30
2018-07-21T03:04:59.319Z,53.20
2018-07-21T03:07:01.289Z,53.30
2018-07-21T03:09:03.271Z,53.20
2018-07-21T03:13:07.488Z,53.30
2018-07-21T03:15:09.454Z,53.30
2018-07-21T03:17:11.428Z,53.30
2018-07-21T03:19:13.401Z,53.30
2018-07-21T03:21:15.381Z,53.20
2018-07-21T03:23:17.384Z,52.70
2018-07-21T03:25:19.352Z,53.30
2018-07-21T03:27:21.316Z,53.20
2018-07-21T03:29:23.294Z,53.50
2018-07-21T03:31:25.270Z,53.20
2018-07-21T03:33:27.252Z,53.20
2018-07-21T03:35:29.220Z,53.20
2018-07-21T03:37:31.224Z,53.20
2018-07-21T03:39:33.197Z,53.30
2018-07-21T03:41:35.167Z,53.30
2018-07-21T03:43:37.128Z,53.30
2018-07-21T03:45:39.094Z,53.30
2018-07-21T03:47:41.072Z,53.30
2018-07-21T03:49:43.044Z,53.30
2018-07-21T03:51:45.009Z,53.30
2018-07-21T03:53:46.976Z,53.30
2018-07-21T03:55:48.938Z,53.30
2018-07-21T03:57:50.916Z,53.80
2018-07-21T03:59:52.895Z,53.30
2018-07-21T04:01:54.848Z,53.20
2018-07-21T04:03:56.829Z,53.20
2018-07-21T04:05:58.783Z,53.20
2018-07-21T04:10:03.005Z,53.20
2018-07-21T04:12:04.977Z,53.20
2018-07-21T04:14:06.932Z,53.10
2018-07-21T04:16:09.018Z,53.10
2018-07-21T04:18:10.980Z,53.10
2018-07-21T04:20:12.944Z,53.10
2018-07-21T04:22:14.900Z,53.00
2018-07-21T04:24:16.906Z,52.90
2018-07-21T04:26:18.856Z,52.80
2018-07-21T04:28:20.823Z,52.90
2018-07-21T04:30:22.788Z,52.90
2018-07-21T04:32:24.737Z,52.90
2018-07-21T04:34:26.720Z,52.90
2018-07-21T04:36:28.686Z,52.90
2018-07-21T04:38:30.660Z,53.00
2018-07-21T04:40:32.622Z,52.90
2018-07-21T04:42:34.606Z,53.00
2018-07-21T04:44:36.560Z,52.90
2018-07-21T04:46:38.526Z,53.00
2018-07-21T04:48:40.502Z,53.00
2018-07-21T04:50:42.456Z,53.00
2018-07-21T04:52:44.430Z,53.00
2018-07-21T04:54:46.390Z,53.40
2018-07-21T04:56:48.356Z,53.60
2018-07-21T04:58:50.327Z,53.00
2018-07-21T05:00:52.395Z,53.00
2018-07-21T05:02:54.289Z,53.00
2018-07-21T05:04:56.265Z,53.00
2018-07-21T05:06:58.216Z,53.00
2018-07-21T05:09:00.197Z,53.10
2018-07-21T05:13:04.396Z,53.20
2018-07-21T05:15:06.365Z,53.20
2018-07-21T05:17:08.323Z,53.20
2018-07-21T05:19:10.314Z,53.10
2018-07-21T05:21:12.268Z,53.10
2018-07-21T05:23:14.240Z,53.10
2018-07-21T05:25:16.193Z,53.00
2018-07-21T05:27:18.155Z,50.10
2018-07-21T05:29:20.120Z,48.10
2018-07-21T05:31:22.071Z,48.90
2018-07-21T05:33:24.098Z,49.90
2018-07-21T05:35:26.031Z,49.90
2018-07-21T05:37:27.995Z,50.20
2018-07-21T05:39:29.966Z,50.40
2018-07-21T05:41:31.938Z,50.30
2018-07-21T05:43:33.920Z,50.60
2018-07-21T05:45:35.887Z,50.60
2018-07-21T05:47:37.847Z,51.00
2018-07-21T05:49:39.825Z,51.30
2018-07-21T05:51:41.783Z,51.00
2018-07-21T05:53:43.769Z,51.60
2018-07-21T05:55:45.713Z,51.20
2018-07-21T05:57:47.695Z,51.50
2018-07-21T05:59:49.668Z,50.50
2018-07-21T06:01:51.645Z,49.70
2018-07-21T06:03:53.624Z,50.20
2018-07-21T06:05:55.578Z,51.50
2018-07-21T06:07:57.560Z,50.50
2018-07-21T06:09:59.521Z,50.30
2018-07-21T06:12:01.486Z,50.00
2018-07-21T06:14:03.458Z,49.70
2018-07-21T06:16:05.416Z,49.70
2018-07-21T06:18:07.407Z,49.80
2018-07-21T06:20:09.377Z,49.20
2018-07-21T06:22:11.334Z,48.60
2018-07-21T06:24:13.334Z,48.50
2018-07-21T06:26:15.293Z,48.40
2018-07-21T06:28:17.247Z,48.10
2018-07-21T06:30:19.235Z,47.90
2018-07-21T06:32:21.189Z,48.20
2018-07-21T06:34:23.172Z,48.30
2018-07-21T06:36:25.140Z,47.60
2018-07-21T06:38:27.095Z,47.70
2018-07-21T06:40:29.056Z,47.60
2018-07-21T06:42:31.025Z,47.80
2018-07-21T06:44:33.004Z,47.70
2018-07-21T06:46:34.977Z,47.70
2018-07-21T06:48:36.947Z,47.90
2018-07-21T06:50:38.917Z,47.70
2018-07-21T06:52:40.865Z,47.90
2018-07-21T06:54:42.821Z,48.30
2018-07-21T06:56:44.807Z,48.70
2018-07-21T06:58:46.793Z,48.30
2018-07-21T07:00:48.745Z,48.30
2018-07-21T07:02:50.697Z,49.10
2018-07-21T07:04:52.661Z,49.20
2018-07-21T07:06:54.641Z,49.20
2018-07-21T07:08:56.602Z,48.90
2018-07-21T07:10:58.565Z,49.10
2018-07-21T07:13:00.524Z,48.90
2018-07-21T07:15:02.489Z,49.00
2018-07-21T07:17:04.467Z,49.00
2018-07-21T07:19:06.462Z,49.00
2018-07-21T07:21:08.464Z,48.70
2018-07-21T07:23:10.435Z,48.80
2018-07-21T07:25:12.418Z,48.30
2018-07-21T07:27:15.372Z,48.70
2018-07-21T07:29:17.312Z,49.00
2018-07-21T07:31:19.272Z,48.90
2018-07-21T07:33:21.243Z,49.00
2018-07-21T07:35:23.222Z,49.90
2018-07-21T07:37:25.177Z,50.30
2018-07-21T07:39:27.129Z,49.20
2018-07-21T07:41:29.118Z,48.50
2018-07-21T07:43:31.065Z,49.10
2018-07-21T07:45:33.048Z,50.10
2018-07-21T07:47:35.026Z,50.30
2018-07-21T07:49:36.993Z,51.50
2018-07-21T07:51:38.956Z,60.00
2018-07-21T07:53:40.924Z,52.30
2018-07-21T07:55:42.886Z,50.90
2018-07-21T07:57:44.858Z,48.30
2018-07-21T07:59:46.818Z,48.50
2018-07-21T08:01:48.768Z,45.20
2018-07-21T08:03:50.759Z,47.60
2018-07-21T08:05:52.717Z,47.20
2018-07-21T08:07:54.694Z,47.80
2018-07-21T08:09:56.651Z,48.60
2018-07-21T08:11:58.616Z,48.80
2018-07-21T08:14:00.594Z,48.30
2018-07-21T08:16:02.572Z,48.50
2018-07-21T08:18:04.574Z,47.80
2018-07-21T08:20:06.535Z,47.90
2018-07-21T08:22:08.511Z,48.10
2018-07-21T08:24:10.466Z,48.90
2018-07-21T08:26:12.439Z,47.80
2018-07-21T08:28:14.417Z,48.10
2018-07-21T08:30:16.384Z,48.40
2018-07-21T08:32:18.346Z,48.70
2018-07-21T08:34:20.325Z,48.30
2018-07-21T08:36:22.292Z,48.60
2018-07-21T08:38:24.252Z,48.30
2018-07-21T08:40:26.235Z,48.10
2018-07-21T08:42:28.239Z,48.10
2018-07-21T08:44:30.165Z,48.60
2018-07-21T08:46:32.158Z,47.80
2018-07-21T08:48:34.118Z,48.00
2018-07-21T08:50:36.093Z,48.20
2018-07-21T08:52:38.052Z,48.80
2018-07-21T08:54:40.018Z,49.50
2018-07-21T08:56:42.001Z,49.70
2018-07-21T08:58:43.972Z,48.50
2018-07-21T09:00:45.977Z,48.70
2018-07-21T09:02:47.945Z,48.10
2018-07-21T09:04:49.913Z,48.80
2018-07-21T09:06:52.134Z,48.90
2018-07-21T09:08:54.095Z,49.40
2018-07-21T09:10:56.051Z,49.60
2018-07-21T09:12:58.018Z,49.70
2018-07-21T09:14:59.992Z,49.70
2018-07-21T09:17:01.992Z,49.70
2018-07-21T09:19:03.940Z,49.80
2018-07-21T09:21:05.914Z,49.90
2018-07-21T09:23:07.884Z,49.90
2018-07-21T09:25:09.841Z,50.00
2018-07-21T09:27:11.824Z,50.00
2018-07-21T09:29:13.801Z,50.00
2018-07-21T09:31:15.786Z,50.00
2018-07-21T09:33:17.736Z,50.00
2018-07-21T09:35:19.723Z,50.00
2018-07-21T09:37:21.698Z,50.00
2018-07-21T09:39:23.649Z,49.90
2018-07-21T09:41:25.624Z,50.00
2018-07-21T09:43:27.597Z,50.00
2018-07-21T09:45:29.556Z,50.00
2018-07-21T09:47:31.534Z,50.10
2018-07-21T09:49:33.504Z,50.20
2018-07-21T09:51:35.476Z,50.10
2018-07-21T09:53:37.440Z,50.20
2018-07-21T09:55:39.457Z,50.20
2018-07-21T09:57:41.397Z,50.20
2018-07-21T09:59:43.350Z,50.20
2018-07-21T10:01:45.334Z,50.30
2018-07-21T10:03:47.290Z,50.30
2018-07-21T10:05:49.264Z,50.30
2018-07-21T10:07:51.222Z,50.30
2018-07-21T10:09:53.199Z,50.30
2018-07-21T10:11:55.172Z,50.30
2018-07-21T10:13:57.170Z,50.30
2018-07-21T10:15:59.127Z,50.30
2018-07-21T10:18:01.095Z,50.40
2018-07-21T10:20:03.066Z,50.40
2018-07-21T10:22:05.046Z,50.30
2018-07-21T10:24:07.000Z,50.30
2018-07-21T10:26:08.985Z,50.30
2018-07-21T10:28:10.957Z,50.30
2018-07-21T10:30:12.970Z,50.40
2018-07-21T10:32:14.891Z,50.50
2018-07-21T10:34:16.855Z,50.50
2018-07-21T10:36:18.833Z,50.60
2018-07-21T10:38:20.798Z,50.60
2018-07-21T10:40:22.804Z,50.60
2018-07-21T10:42:24.733Z,50.60
2018-07-21T10:44:26.748Z,50.60
2018-07-21T10:46:28.682Z,50.70
2018-07-21T10:48:30.645Z,50.70
2018-07-21T10:50:32.625Z,50.80
2018-07-21T10:52:34.629Z,50.80
2018-07-21T10:54:36.596Z,51.40
2018-07-21T10:56:38.555Z,50.90
2018-07-21T10:58:40.554Z,51.50
2018-07-21T11:00:42.539Z,50.80
2018-07-21T11:02:49.331Z,50.80
2018-07-21T11:04:51.304Z,50.90
2018-07-21T11:06:53.285Z,50.90
2018-07-21T11:08:55.253Z,50.90
2018-07-21T11:10:57.251Z,50.90
2018-07-21T11:12:59.213Z,50.90
2018-07-21T11:15:01.179Z,51.00
2018-07-21T11:17:03.155Z,51.00
2018-07-21T11:19:05.116Z,51.00
2018-07-21T11:21:07.114Z,51.00
2018-07-21T11:23:09.067Z,51.00
2018-07-21T11:25:11.049Z,51.00
2018-07-21T11:27:13.031Z,51.10
2018-07-21T11:29:14.995Z,51.10
2018-07-21T11:31:16.954Z,51.10
2018-07-21T11:33:18.924Z,51.20
2018-07-21T11:35:21.846Z,50.70
2018-07-21T11:37:23.726Z,51.20
2018-07-21T11:39:25.684Z,51.30
2018-07-21T11:41:27.673Z,51.30
2018-07-21T11:43:29.646Z,51.40
2018-07-21T11:45:31.620Z,51.40
2018-07-21T11:47:33.599Z,51.40
2018-07-21T11:49:35.574Z,51.50
2018-07-21T11:51:37.555Z,51.50
2018-07-21T11:53:39.538Z,51.50
2018-07-21T11:55:41.510Z,51.50
2018-07-21T11:57:43.472Z,51.50
2018-07-21T11:59:45.440Z,51.60
2018-07-21T12:01:47.417Z,51.50
2018-07-21T12:03:49.384Z,51.50
2018-07-21T12:05:51.395Z,51.60
2018-07-21T12:07:53.344Z,51.60
2018-07-21T12:09:55.309Z,51.60
2018-07-21T12:11:57.265Z,52.30
2018-07-21T12:13:59.236Z,51.70
2018-07-21T12:16:01.226Z,51.70
2018-07-21T12:18:03.204Z,51.70
2018-07-21T12:20:05.162Z,51.70
2018-07-21T12:22:07.125Z,51.70
2018-07-21T12:24:09.094Z,51.70
2018-07-21T12:26:11.043Z,51.80
2018-07-21T12:28:13.018Z,51.70
2018-07-21T12:30:14.983Z,51.70
2018-07-21T12:32:16.960Z,51.80
2018-07-21T12:34:19.075Z,51.70
2018-07-21T12:36:20.973Z,51.80
2018-07-21T12:38:22.962Z,51.80
2018-07-21T12:40:24.900Z,51.80
2018-07-21T12:42:26.860Z,51.20
2018-07-21T12:44:28.834Z,51.80
2018-07-21T12:46:30.809Z,51.80
2018-07-21T12:48:32.765Z,51.80
2018-07-21T12:50:34.731Z,51.80
2018-07-21T12:52:36.708Z,51.80
2018-07-21T12:54:38.668Z,51.80
2018-07-21T12:56:40.614Z,51.80
2018-07-21T12:58:42.610Z,51.80
2018-07-21T13:00:44.572Z,51.80
2018-07-21T13:02:46.534Z,51.80
2018-07-21T13:04:48.507Z,51.80
2018-07-21T13:06:50.453Z,51.90
2018-07-21T13:08:52.440Z,51.90
2018-07-21T13:10:54.398Z,51.80
2018-07-21T13:12:56.369Z,51.80
2018-07-21T13:14:58.310Z,51.80
2018-07-21T13:17:00.274Z,51.80
2018-07-21T13:19:02.255Z,51.80
2018-07-21T13:21:04.240Z,51.80
2018-07-21T13:23:06.198Z,51.80
2018-07-21T13:25:08.168Z,51.80
2018-07-21T13:27:10.137Z,51.80
2018-07-21T13:29:12.101Z,51.80
2018-07-21T13:31:14.074Z,51.70
2018-07-21T13:33:16.095Z,51.70
2018-07-21T13:35:18.013Z,51.80
2018-07-21T13:37:20.053Z,51.20
2018-07-21T13:39:21.975Z,51.70
2018-07-21T13:41:23.934Z,51.70
2018-07-21T13:43:25.897Z,51.70
2018-07-21T13:45:27.843Z,51.80
2018-07-21T13:47:29.826Z,51.80
2018-07-21T13:49:31.771Z,51.80
2018-07-21T13:51:33.751Z,51.90
2018-07-21T13:53:35.704Z,51.90
2018-07-21T13:55:37.672Z,51.90
2018-07-21T13:57:39.692Z,52.90
2018-07-21T13:59:41.677Z,51.90
2018-07-21T14:01:43.645Z,52.70
2018-07-21T14:03:45.615Z,51.70
2018-07-21T14:05:47.592Z,51.50
2018-07-21T14:07:49.649Z,51.30
2018-07-21T14:09:51.639Z,51.20
2018-07-21T14:11:53.613Z,51.10
2018-07-21T14:13:55.610Z,50.90
2018-07-21T14:15:57.583Z,50.80
2018-07-21T14:17:59.569Z,50.90
2018-07-21T14:20:01.532Z,50.80
2018-07-21T14:22:03.503Z,50.60
2018-07-21T14:24:05.528Z,50.50
2018-07-21T14:26:07.486Z,50.50
2018-07-21T14:28:09.477Z,50.40
2018-07-21T14:30:11.448Z,50.40
2018-07-21T14:32:13.412Z,50.00
2018-07-21T14:34:15.412Z,50.20
2018-07-21T14:36:17.490Z,50.10
2018-07-21T14:38:19.353Z,50.00
2018-07-21T14:40:21.323Z,60.00
2018-07-21T14:42:23.317Z,47.40
2018-07-21T14:46:27.532Z,48.20
2018-07-21T14:48:29.528Z,48.60
2018-07-21T14:50:31.501Z,48.30
2018-07-21T14:52:33.471Z,48.70
2018-07-21T14:54:35.493Z,48.90
2018-07-21T14:56:37.433Z,48.90
2018-07-21T14:58:39.405Z,49.00
2018-07-21T15:00:41.379Z,48.80
2018-07-21T15:02:43.361Z,49.00
2018-07-21T15:04:45.327Z,48.70
2018-07-21T15:06:47.311Z,48.80
2018-07-21T15:08:49.335Z,48.90
2018-07-21T15:10:51.299Z,48.80
2018-07-21T15:12:53.263Z,48.70
2018-07-21T15:14:55.271Z,48.70
2018-07-21T15:16:57.231Z,48.60
2018-07-21T15:18:59.197Z,48.50
2018-07-21T15:21:01.166Z,48.50
2018-07-21T15:23:03.141Z,48.80
2018-07-21T15:25:05.141Z,48.70
